Malaysia Virtual Airlines Airport Information Service

Incheon International Airport

ICAO: RKSI Country: South Korea
Latitude: 37.4691 Longitude: 126.451
Latest Arrival : MH66 (WMKK-RKSI) Latest Departure : MH9780 (RKSI-RJAA)


WX CaptureLIVE
Data provided by noaa.gov | Fetched at 06:27:40

METAR : RKSI 290600Z 15008KT 9000 NSC 11/05 Q1025 NOSIG

TAF : RKSI 290500Z 2906/3012 16008KT 7000 NSC TN08/2921Z TX11/3004Z BECMG 2917/2918 16015G25KT 4000 -RA FEW010 BKN025 OVC080 TEMPO 2922/3001 19015G25KT 2500 RA SCT010CB BKN025 OVC060 BECMG 3001/3002 25015G25KT BECMG 3004/3005 30020G40KT 6000 NSW


Runway Data for RKSI
Data provided by openaviationdata.com

Runway ID Mag Var Hdg Length Elevation Surface ILS Freq ILS Id ILS Slope
15L -8 152° 12308 ft 23 ft Asphalt 111.9 ISLL 3
15R -8 152° 12308 ft 23 ft Asphalt 109.1 ISRR 3
33L -8 332° 12308 ft 23 ft Asphalt 109.3 INLL 3
33R -8 332° 12308 ft 23 ft Asphalt 108.9 INRR 3

Incheon International Airport, South Korea
Use only for reference purposes



Not for navigational purposes.